createdAt,value
2023-04-16T00:02:27.291Z,26.63
2023-04-16T00:04:55.654Z,31.17
2023-04-16T00:07:26.004Z,32.47
2023-04-16T00:09:54.060Z,29.30
2023-04-16T00:12:22.511Z,30.87
2023-04-16T00:14:53.254Z,33.67
2023-04-16T00:17:24.306Z,34.97
2023-04-16T00:19:53.992Z,31.63
2023-04-16T00:22:22.023Z,34.73
2023-04-16T00:24:50.267Z,34.17
2023-04-16T00:27:19.804Z,33.43
2023-04-16T00:29:49.285Z,36.17
2023-04-16T00:32:18.997Z,33.07
2023-04-16T00:34:49.407Z,35.07
2023-04-16T00:37:17.554Z,35.83
2023-04-16T00:39:49.204Z,36.13
2023-04-16T00:42:21.488Z,33.50
2023-04-16T00:44:49.539Z,33.00
2023-04-16T00:47:23.013Z,32.50
2023-04-16T00:49:51.647Z,29.87
2023-04-16T00:52:20.863Z,28.63
2023-04-16T00:54:51.801Z,29.77
2023-04-16T00:57:25.062Z,29.47
2023-04-16T00:59:53.244Z,24.83
2023-04-16T01:02:22.897Z,27.77
2023-04-16T01:04:53.906Z,26.43
2023-04-16T01:07:22.078Z,27.27
2023-04-16T01:09:53.584Z,26.87
2023-04-16T01:12:21.730Z,24.97
2023-04-16T01:14:50.042Z,22.87
2023-04-16T01:17:22.957Z,27.60
2023-04-16T01:19:52.475Z,25.23
2023-04-16T01:22:23.209Z,24.57
2023-04-16T01:24:52.717Z,27.60
2023-04-16T01:27:20.748Z,25.43
2023-04-16T01:29:49.896Z,29.23
2023-04-16T01:32:19.267Z,26.80
2023-04-16T01:34:48.858Z,30.57
2023-04-16T01:37:19.008Z,28.43
2023-04-16T01:39:49.640Z,31.03
2023-04-16T01:42:24.267Z,31.33
2023-04-16T01:44:52.444Z,30.53
2023-04-16T01:47:37.978Z,31.20
2023-04-16T01:50:07.054Z,32.70
2023-04-16T01:52:35.265Z,30.97
2023-04-16T01:55:04.948Z,35.17
2023-04-16T01:57:33.202Z,32.63
2023-04-16T02:00:05.055Z,31.93
2023-04-16T02:02:37.074Z,32.87
2023-04-16T02:05:09.568Z,35.57
2023-04-16T02:07:40.263Z,35.13
2023-04-16T02:10:15.979Z,33.30
2023-04-16T02:12:48.316Z,32.83
2023-04-16T02:15:22.027Z,33.57
2023-04-16T02:17:56.931Z,33.70
2023-04-16T02:20:29.343Z,33.30
2023-04-16T02:23:00.026Z,39.43
2023-04-16T02:25:32.982Z,37.37
2023-04-16T02:28:03.818Z,33.63
2023-04-16T02:30:35.180Z,39.07
2023-04-16T02:33:09.983Z,38.27
2023-04-16T02:35:39.429Z,36.30
2023-04-16T02:38:09.602Z,37.83
2023-04-16T02:40:42.136Z,38.73
2023-04-16T02:43:15.253Z,36.73
2023-04-16T02:45:45.720Z,35.53
2023-04-16T02:48:13.929Z,38.77
2023-04-16T02:50:43.307Z,36.53
2023-04-16T02:53:14.129Z,37.83
2023-04-16T02:55:48.392Z,38.47
2023-04-16T02:58:23.915Z,36.63
2023-04-16T03:01:01.429Z,38.00
2023-04-16T03:03:47.421Z,40.03
2023-04-16T03:06:15.659Z,36.37
2023-04-16T03:08:43.755Z,34.63
2023-04-16T03:11:13.156Z,37.53
2023-04-16T03:13:41.455Z,39.17
2023-04-16T03:16:11.134Z,40.67
2023-04-16T03:18:41.748Z,41.00
2023-04-16T03:21:12.385Z,39.63
2023-04-16T03:23:40.418Z,37.67
2023-04-16T03:26:08.611Z,37.87
2023-04-16T03:28:38.058Z,38.17
2023-04-16T03:31:06.310Z,38.20
2023-04-16T03:33:34.613Z,41.77
2023-04-16T03:36:03.423Z,36.53
2023-04-16T03:38:32.933Z,37.23
2023-04-16T03:41:03.624Z,40.53
2023-04-16T03:43:33.091Z,39.83
2023-04-16T03:46:03.742Z,39.63
2023-04-16T03:48:36.503Z,38.17
2023-04-16T03:51:06.389Z,37.90
2023-04-16T03:53:35.520Z,40.60
2023-04-16T03:56:04.058Z,36.90
2023-04-16T03:58:32.309Z,36.97
2023-04-16T04:01:04.400Z,36.93
2023-04-16T04:03:34.268Z,38.07
2023-04-16T04:06:08.465Z,34.97
2023-04-16T04:08:39.321Z,36.27
2023-04-16T04:11:08.432Z,35.30
2023-04-16T04:13:39.025Z,34.57
2023-04-16T04:16:16.200Z,37.47
2023-04-16T04:18:46.956Z,35.60
2023-04-16T04:21:16.691Z,37.90
2023-04-16T04:23:44.715Z,37.93
2023-04-16T04:26:12.906Z,36.90
2023-04-16T04:28:41.079Z,41.13
2023-04-16T04:31:10.446Z,37.77
2023-04-16T04:33:39.146Z,41.27
2023-04-16T04:36:11.077Z,36.40
2023-04-16T04:38:39.258Z,37.90
2023-04-16T04:41:07.416Z,39.43
2023-04-16T04:43:41.600Z,38.70
2023-04-16T04:46:10.888Z,37.57
2023-04-16T04:48:40.200Z,38.50
2023-04-16T04:51:14.040Z,37.20
2023-04-16T04:53:42.132Z,41.57
2023-04-16T04:56:12.788Z,35.57
2023-04-16T04:58:42.034Z,34.93
2023-04-16T05:01:12.438Z,40.13
2023-04-16T05:03:42.036Z,31.63
2023-04-16T05:06:11.944Z,33.90
2023-04-16T05:08:40.052Z,32.10
2023-04-16T05:11:09.425Z,30.37
2023-04-16T05:13:37.599Z,31.90
2023-04-16T05:16:07.953Z,33.97
2023-04-16T05:18:38.492Z,30.30
2023-04-16T05:21:07.111Z,32.30
2023-04-16T05:23:36.579Z,29.13
2023-04-16T05:26:05.169Z,30.73
2023-04-16T05:28:33.927Z,32.37
2023-04-16T05:31:03.451Z,31.83
2023-04-16T05:33:31.645Z,28.90
2023-04-16T05:35:59.697Z,27.07
2023-04-16T05:38:29.259Z,29.10
2023-04-16T05:40:59.919Z,24.90
2023-04-16T05:43:29.546Z,25.60
2023-04-16T05:45:58.844Z,28.00
2023-04-16T05:48:28.067Z,24.00
2023-04-16T05:50:56.299Z,23.07
2023-04-16T05:53:24.470Z,23.10
2023-04-16T05:55:52.693Z,24.23
2023-04-16T05:58:25.671Z,22.73
2023-04-16T06:00:53.822Z,21.40
2023-04-16T06:03:22.898Z,20.73
2023-04-16T06:05:52.846Z,21.27
2023-04-16T06:08:22.328Z,20.00
2023-04-16T06:10:52.343Z,16.13
2023-04-16T06:13:20.931Z,19.50
2023-04-16T06:15:51.763Z,18.23
2023-04-16T06:18:24.854Z,17.30
2023-04-16T06:20:53.279Z,22.23
2023-04-16T06:23:30.535Z,17.67
2023-04-16T06:25:58.930Z,20.57
2023-04-16T06:28:28.101Z,17.37
2023-04-16T06:33:45.504Z,17.67
2023-04-16T06:36:13.681Z,14.83
2023-04-16T06:38:45.513Z,17.57
2023-04-16T06:41:15.657Z,17.73
2023-04-16T06:44:30.890Z,15.93
2023-04-16T06:47:05.999Z,16.57
2023-04-16T06:49:42.201Z,16.00
2023-04-16T06:52:14.240Z,17.07
2023-04-16T06:54:43.933Z,13.80
2023-04-16T06:57:12.657Z,17.63
2023-04-16T06:59:44.585Z,13.23
2023-04-16T07:02:16.573Z,14.87
2023-04-16T07:04:48.216Z,13.87
2023-04-16T07:07:19.018Z,15.17
2023-04-16T07:09:51.477Z,16.07
2023-04-16T07:12:23.851Z,13.50
2023-04-16T07:14:53.032Z,13.43
2023-04-16T07:17:25.192Z,16.07
2023-04-16T07:19:54.724Z,13.90
2023-04-16T07:22:24.308Z,16.90
2023-04-16T07:24:54.933Z,16.23
2023-04-16T07:27:23.021Z,18.17
2023-04-16T07:29:54.770Z,15.03
2023-04-16T07:32:24.954Z,15.00
2023-04-16T07:35:01.108Z,15.43
2023-04-16T07:37:29.225Z,17.47
2023-04-16T07:39:57.853Z,15.67
2023-04-16T07:42:28.024Z,18.40
2023-04-16T07:44:58.009Z,17.60
2023-04-16T07:47:33.322Z,18.80
2023-04-16T07:50:05.887Z,17.83
2023-04-16T07:52:37.551Z,18.83
2023-04-16T07:55:07.180Z,17.00
2023-04-16T07:57:37.780Z,16.93
2023-04-16T08:00:09.754Z,20.10
2023-04-16T08:02:39.812Z,17.77
2023-04-16T08:05:19.784Z,18.73
2023-04-16T08:07:49.015Z,19.20
2023-04-16T08:10:17.562Z,19.57
2023-04-16T08:12:47.033Z,18.55
2023-04-16T08:15:15.131Z,17.37
2023-04-16T08:17:45.623Z,18.67
2023-04-16T08:20:16.928Z,17.87
2023-04-16T08:22:49.169Z,18.50
2023-04-16T08:25:17.459Z,23.20
2023-04-16T08:27:46.224Z,22.73
2023-04-16T08:30:19.730Z,22.77
2023-04-16T08:32:50.214Z,20.57
2023-04-16T08:35:19.833Z,20.87
2023-04-16T08:37:48.283Z,19.47
2023-04-16T08:40:18.097Z,19.87
2023-04-16T08:42:49.868Z,20.27
2023-04-16T08:45:20.905Z,21.47
2023-04-16T08:47:52.361Z,19.17
2023-04-16T08:50:35.543Z,19.23
2023-04-16T08:53:14.502Z,18.87
2023-04-16T08:55:51.390Z,17.50
2023-04-16T08:58:27.690Z,18.17
2023-04-16T09:01:12.095Z,17.17
2023-04-16T09:04:27.641Z,17.10
2023-04-16T09:07:39.253Z,16.57
2023-04-16T09:13:21.216Z,17.47
2023-04-16T09:15:57.522Z,18.23
2023-04-16T09:18:29.704Z,19.10
2023-04-16T09:21:06.930Z,17.77
2023-04-16T09:23:40.116Z,18.00
2023-04-16T09:26:09.482Z,18.03
2023-04-16T09:28:41.584Z,21.37
2023-04-16T09:31:12.539Z,17.33
2023-04-16T09:33:42.927Z,16.73
2023-04-16T09:36:12.509Z,20.57
2023-04-16T09:38:50.407Z,17.90
2023-04-16T09:41:18.806Z,18.07
2023-04-16T09:43:56.750Z,17.30
2023-04-16T09:46:39.370Z,16.33
2023-04-16T09:49:10.452Z,19.07
2023-04-16T09:51:42.170Z,16.70
2023-04-16T09:54:10.801Z,19.03
2023-04-16T09:56:44.979Z,17.37
2023-04-16T10:02:58.281Z,18.60
2023-04-16T10:05:28.861Z,20.77
2023-04-16T10:10:29.945Z,19.27
2023-04-16T10:12:59.640Z,17.80
2023-04-16T10:15:28.769Z,19.00
2023-04-16T10:18:01.044Z,19.30
2023-04-16T10:20:36.156Z,20.87
2023-04-16T10:23:12.824Z,18.33
2023-04-16T10:25:49.446Z,17.70
2023-04-16T10:28:35.314Z,15.93
2023-04-16T10:31:11.759Z,15.97
2023-04-16T10:33:45.253Z,16.00
2023-04-16T10:36:37.456Z,16.20
2023-04-16T10:39:50.699Z,14.67
2023-04-16T10:42:26.839Z,15.13
2023-04-16T10:44:58.764Z,15.63
2023-04-16T10:47:30.130Z,14.93
2023-04-16T10:49:59.702Z,13.23
2023-04-16T10:52:30.915Z,15.03
2023-04-16T10:55:01.448Z,13.93
2023-04-16T10:57:31.713Z,14.10
2023-04-16T11:00:01.668Z,15.63
2023-04-16T11:02:30.902Z,14.63
2023-04-16T11:05:03.174Z,12.40
2023-04-16T11:07:42.374Z,14.23
2023-04-16T11:10:16.407Z,14.40
2023-04-16T11:12:48.439Z,15.87
2023-04-16T11:15:19.343Z,12.23
2023-04-16T11:17:48.990Z,13.60
2023-04-16T11:20:19.796Z,13.47
2023-04-16T11:22:49.461Z,13.10
2023-04-16T11:25:22.015Z,11.97
2023-04-16T11:27:53.896Z,10.77
2023-04-16T11:30:30.735Z,11.53
2023-04-16T11:33:00.871Z,10.60
2023-04-16T11:35:32.357Z,13.00
2023-04-16T11:38:00.628Z,10.53
2023-04-16T11:40:31.916Z,10.07
2023-04-16T11:43:05.342Z,10.47
2023-04-16T11:45:35.949Z,10.53
2023-04-16T11:48:05.897Z,9.63
2023-04-16T11:50:34.056Z,10.57
2023-04-16T11:53:32.193Z,9.33
2023-04-16T11:56:03.500Z,9.73
2023-04-16T11:58:33.579Z,10.47
2023-04-16T12:01:03.072Z,8.47
2023-04-16T12:03:44.347Z,9.23
2023-04-16T12:06:12.994Z,9.60
2023-04-16T12:08:41.204Z,8.20
2023-04-16T12:11:09.355Z,9.37
2023-04-16T12:14:08.822Z,7.57
2023-04-16T12:16:37.101Z,8.40
2023-04-16T12:19:06.506Z,8.77
2023-04-16T12:21:39.388Z,8.80
2023-04-16T12:24:56.580Z,10.00
2023-04-16T12:27:40.959Z,9.20
2023-04-16T12:30:11.417Z,8.47
2023-04-16T12:32:40.148Z,8.00
2023-04-16T12:35:09.260Z,7.40
2023-04-16T12:37:37.381Z,8.57
2023-04-16T12:40:07.178Z,7.27
2023-04-16T12:42:40.710Z,9.57
2023-04-16T12:45:10.909Z,6.60
2023-04-16T12:47:39.611Z,6.47
2023-04-16T12:50:13.728Z,6.63
2023-04-16T12:52:41.982Z,7.50
2023-04-16T12:55:15.012Z,7.07
2023-04-16T12:57:49.066Z,7.60
2023-04-16T13:00:38.268Z,7.03
2023-04-16T13:03:21.849Z,7.13
2023-04-16T13:05:51.275Z,7.83
2023-04-16T13:08:21.923Z,7.20
2023-04-16T13:10:52.828Z,8.07
2023-04-16T13:13:26.402Z,8.13
2023-04-16T13:15:58.677Z,8.53
2023-04-16T13:18:27.539Z,8.80
2023-04-16T13:20:58.636Z,8.30
2023-04-16T13:23:27.215Z,10.20
2023-04-16T13:25:55.762Z,12.40
2023-04-16T13:28:49.478Z,10.87
2023-04-16T13:31:22.381Z,9.67
2023-04-16T13:34:01.572Z,9.70
2023-04-16T13:36:38.222Z,10.27
2023-04-16T13:39:10.898Z,10.30
2023-04-16T13:41:43.630Z,11.90
2023-04-16T13:44:11.836Z,11.77
2023-04-16T13:46:49.887Z,11.60
2023-04-16T13:49:19.497Z,12.30
2023-04-16T13:51:47.558Z,11.80
2023-04-16T13:54:15.697Z,12.67
2023-04-16T13:56:43.959Z,11.50
2023-04-16T14:02:10.765Z,11.60
2023-04-16T14:04:39.194Z,11.83
2023-04-16T14:07:18.498Z,12.07
2023-04-16T14:09:48.407Z,11.10
2023-04-16T14:12:22.997Z,14.13
2023-04-16T14:15:02.785Z,12.57
2023-04-16T14:17:38.943Z,14.03
2023-04-16T14:20:11.791Z,11.70
2023-04-16T14:22:44.917Z,12.87
2023-04-16T14:25:19.446Z,11.63
2023-04-16T14:27:57.985Z,12.37
2023-04-16T14:30:31.978Z,11.87
2023-04-16T14:33:03.700Z,12.57
2023-04-16T14:35:37.643Z,11.70
2023-04-16T14:38:16.916Z,12.03
2023-04-16T14:40:46.555Z,13.53
2023-04-16T14:43:14.967Z,11.17
2023-04-16T14:45:43.415Z,13.17
2023-04-16T14:48:13.044Z,13.77
2023-04-16T14:50:44.058Z,17.33
2023-04-16T14:53:12.923Z,13.70
2023-04-16T14:55:42.047Z,12.57
2023-04-16T14:58:10.836Z,15.97
2023-04-16T15:00:41.727Z,13.20
2023-04-16T15:03:09.914Z,13.00
2023-04-16T15:05:40.554Z,14.53
2023-04-16T15:08:08.868Z,16.70
2023-04-16T15:10:37.842Z,12.27
2023-04-16T15:13:08.243Z,13.77
2023-04-16T15:15:36.389Z,14.50
2023-04-16T15:18:05.189Z,14.20
2023-04-16T15:20:33.402Z,16.58
2023-04-16T15:23:03.400Z,15.97
2023-04-16T15:25:31.680Z,14.83
2023-04-16T15:28:00.051Z,13.30
2023-04-16T15:30:31.450Z,12.03
2023-04-16T15:33:06.445Z,15.13
2023-04-16T15:35:34.886Z,12.63
2023-04-16T15:38:09.501Z,13.97
2023-04-16T15:40:38.082Z,15.13
2023-04-16T15:43:10.329Z,12.40
2023-04-16T15:45:38.850Z,13.83
2023-04-16T15:48:07.904Z,15.70
2023-04-16T15:50:36.417Z,14.70
2023-04-16T15:53:06.666Z,12.90
2023-04-16T15:55:36.002Z,13.17
2023-04-16T15:58:07.331Z,14.83
2023-04-16T16:00:36.043Z,17.40
2023-04-16T16:03:04.571Z,15.50
2023-04-16T16:05:35.102Z,14.57
2023-04-16T16:08:39.914Z,15.63
2023-04-16T16:11:17.206Z,14.97
2023-04-16T16:13:45.623Z,14.53
2023-04-16T16:16:42.369Z,14.17
2023-04-16T16:19:46.579Z,16.53
2023-04-16T16:22:23.957Z,16.13
2023-04-16T16:25:01.078Z,33.77
2023-04-16T16:27:30.639Z,30.37
2023-04-16T16:30:02.760Z,13.67
2023-04-16T16:32:31.229Z,14.00
2023-04-16T16:35:00.665Z,13.87
2023-04-16T16:37:36.652Z,14.00
2023-04-16T16:40:16.013Z,16.73
2023-04-16T16:42:44.887Z,13.27
2023-04-16T16:45:13.632Z,13.40
2023-04-16T16:47:53.836Z,13.70
2023-04-16T16:50:26.181Z,13.23
2023-04-16T16:53:10.514Z,14.47
2023-04-16T16:55:41.800Z,14.07
2023-04-16T16:58:16.399Z,14.50
2023-04-16T17:00:46.066Z,13.03
2023-04-16T17:03:17.503Z,12.87
2023-04-16T17:05:53.350Z,13.27
2023-04-16T17:08:29.653Z,14.67
2023-04-16T17:11:03.470Z,13.87
2023-04-16T17:13:41.987Z,13.03
2023-04-16T17:16:10.655Z,14.23
2023-04-16T17:18:44.959Z,13.20
2023-04-16T17:21:16.531Z,12.63
2023-04-16T17:23:51.121Z,13.73
2023-04-16T17:26:21.770Z,13.63
2023-04-16T17:28:50.913Z,13.80
2023-04-16T17:31:23.148Z,12.00
2023-04-16T17:33:54.336Z,14.80
2023-04-16T17:36:30.233Z,13.87
2023-04-16T17:39:05.026Z,12.73
2023-04-16T17:41:45.334Z,11.73
2023-04-16T17:44:16.239Z,12.37
2023-04-16T17:46:47.325Z,12.30
2023-04-16T17:49:20.219Z,14.93
2023-04-16T17:51:52.674Z,14.60
2023-04-16T17:54:21.175Z,13.20
2023-04-16T17:56:50.718Z,11.33
2023-04-16T17:59:18.741Z,12.67
2023-04-16T18:01:48.084Z,13.20
2023-04-16T18:04:16.574Z,13.33
2023-04-16T18:06:46.890Z,12.80
2023-04-16T18:09:16.115Z,13.73
2023-04-16T18:11:44.175Z,14.93
2023-04-16T18:14:17.329Z,12.53
2023-04-16T18:16:47.872Z,16.13
2023-04-16T18:19:16.411Z,12.57
2023-04-16T18:21:45.072Z,12.83
2023-04-16T18:24:13.785Z,14.60
2023-04-16T18:26:42.043Z,12.90
2023-04-16T18:29:18.684Z,12.03
2023-04-16T18:31:47.466Z,12.60
2023-04-16T18:34:15.571Z,13.20
2023-04-16T18:36:43.658Z,14.23
2023-04-16T18:39:11.710Z,12.50
2023-04-16T18:41:40.719Z,11.63
2023-04-16T18:44:10.842Z,10.97
2023-04-16T18:46:41.896Z,11.67
2023-04-16T18:49:11.623Z,12.60
2023-04-16T18:51:40.373Z,13.00
2023-04-16T18:54:13.912Z,11.30
2023-04-16T18:56:42.018Z,12.33
2023-04-16T18:59:27.449Z,21.80
2023-04-16T19:02:02.066Z,14.07
2023-04-16T19:04:30.221Z,12.47
2023-04-16T19:06:58.313Z,11.83
2023-04-16T19:09:27.488Z,12.90
2023-04-16T19:11:56.086Z,12.37
2023-04-16T19:14:24.085Z,12.30
2023-04-16T19:16:52.266Z,13.77
2023-04-16T19:19:21.755Z,14.87
2023-04-16T19:21:51.276Z,15.53
2023-04-16T19:24:22.594Z,14.47
2023-04-16T19:26:51.972Z,11.67
2023-04-16T19:29:20.935Z,13.47
2023-04-16T19:31:51.014Z,11.67
2023-04-16T19:34:19.127Z,13.37
2023-04-16T19:36:48.570Z,14.00
2023-04-16T19:39:16.709Z,38.97
2023-04-16T19:41:44.826Z,17.93
2023-04-16T19:44:12.916Z,14.13
2023-04-16T19:46:41.715Z,16.47
2023-04-16T19:49:10.084Z,20.57
2023-04-16T19:51:46.348Z,14.50
2023-04-16T19:54:17.570Z,14.17
2023-04-16T19:56:45.972Z,17.60
2023-04-16T19:59:14.107Z,16.33
2023-04-16T20:01:42.216Z,15.03
2023-04-16T20:04:10.662Z,17.23
2023-04-16T20:06:38.933Z,16.47
2023-04-16T20:09:07.066Z,15.97
2023-04-16T20:11:36.781Z,15.60
2023-04-16T20:14:04.876Z,16.77
2023-04-16T20:16:33.882Z,15.33
2023-04-16T20:19:07.985Z,15.20
2023-04-16T20:21:43.431Z,16.60
2023-04-16T20:24:16.728Z,17.87
2023-04-16T20:26:51.894Z,16.83
2023-04-16T20:29:24.394Z,15.13
2023-04-16T20:31:57.089Z,17.60
2023-04-16T20:34:26.066Z,17.93
2023-04-16T20:37:03.869Z,17.47
2023-04-16T20:39:47.690Z,17.27
2023-04-16T20:42:18.076Z,18.20
2023-04-16T20:44:52.860Z,17.23
2023-04-16T20:47:23.252Z,17.30
2023-04-16T20:49:55.492Z,17.03
2023-04-16T20:52:33.215Z,13.70
2023-04-16T20:55:06.269Z,17.90
2023-04-16T20:57:41.812Z,17.30
2023-04-16T21:00:29.791Z,16.20
2023-04-16T21:03:03.091Z,18.20
2023-04-16T21:05:37.583Z,18.20
2023-04-16T21:08:06.663Z,16.33
2023-04-16T21:10:37.840Z,16.20
2023-04-16T21:13:15.523Z,15.90
2023-04-16T21:15:45.862Z,15.80
2023-04-16T21:18:23.422Z,17.77
2023-04-16T21:20:58.544Z,17.20
2023-04-16T21:23:34.242Z,16.63
2023-04-16T21:26:32.013Z,17.20
2023-04-16T21:29:01.999Z,16.87
2023-04-16T21:31:30.553Z,15.43
2023-04-16T21:33:59.230Z,15.23
2023-04-16T21:36:42.594Z,16.67
2023-04-16T21:39:17.563Z,16.53
2023-04-16T21:41:45.816Z,16.63
2023-04-16T21:44:22.085Z,15.30
2023-04-16T21:46:51.284Z,17.93
2023-04-16T21:49:19.569Z,17.00
2023-04-16T21:51:47.656Z,16.03
2023-04-16T21:54:18.123Z,16.63
2023-04-16T21:56:46.313Z,16.17
2023-04-16T21:59:16.142Z,16.97
2023-04-16T22:01:44.446Z,17.73
2023-04-16T22:04:13.066Z,17.37
2023-04-16T22:06:46.924Z,16.90
2023-04-16T22:09:17.547Z,18.97
2023-04-16T22:11:47.768Z,19.77
2023-04-16T22:14:18.190Z,18.80
2023-04-16T22:16:55.717Z,17.77
2023-04-16T22:19:27.132Z,19.57
2023-04-16T22:22:02.433Z,18.13
2023-04-16T22:24:31.199Z,18.40
2023-04-16T22:27:05.582Z,18.07
2023-04-16T22:29:38.085Z,20.80
2023-04-16T22:32:13.143Z,18.77
2023-04-16T22:34:58.679Z,19.77
2023-04-16T22:37:28.004Z,17.83
2023-04-16T22:39:56.384Z,17.47
2023-04-16T22:42:25.003Z,17.53
2023-04-16T22:44:55.225Z,20.00
2023-04-16T22:47:23.881Z,21.57
2023-04-16T22:49:52.209Z,20.10
2023-04-16T22:52:21.104Z,20.53
2023-04-16T22:54:49.405Z,19.00
2023-04-16T22:57:21.305Z,18.77
2023-04-16T22:59:49.620Z,18.10
2023-04-16T23:02:19.673Z,19.53
2023-04-16T23:04:48.636Z,20.47
2023-04-16T23:07:17.782Z,18.67
2023-04-16T23:09:46.106Z,19.27
2023-04-16T23:12:14.267Z,17.87
2023-04-16T23:14:47.354Z,18.73
2023-04-16T23:17:16.138Z,20.00
2023-04-16T23:19:46.011Z,20.60
2023-04-16T23:22:14.234Z,21.27
2023-04-16T23:24:47.579Z,19.57
2023-04-16T23:27:16.499Z,19.63
2023-04-16T23:29:44.542Z,20.10
2023-04-16T23:32:12.610Z,20.17
2023-04-16T23:34:41.862Z,20.60
2023-04-16T23:37:11.571Z,20.43
2023-04-16T23:39:39.973Z,20.63
2023-04-16T23:42:10.226Z,22.27
2023-04-16T23:44:38.300Z,21.10
2023-04-16T23:47:06.528Z,20.73
2023-04-16T23:49:34.849Z,21.27
2023-04-16T23:52:03.236Z,19.30
2023-04-16T23:54:32.957Z,20.97
2023-04-16T23:57:02.147Z,21.70
2023-04-16T23:59:35.891Z,19.33
